createdAt,value
2019-05-17T00:00:42.885Z,96.17
2019-05-17T00:01:42.913Z,96.08
2019-05-17T00:02:42.942Z,95.79
2019-05-17T00:03:42.975Z,95.51
2019-05-17T00:04:43.008Z,96.08
2019-05-17T00:05:43.037Z,95.70
2019-05-17T00:06:43.067Z,96.27
2019-05-17T00:07:43.096Z,95.94
2019-05-17T00:08:43.129Z,96.27
2019-05-17T00:09:43.158Z,95.98
2019-05-17T00:10:43.194Z,95.70
2019-05-17T00:11:43.219Z,95.75
2019-05-17T00:12:43.254Z,96.03
2019-05-17T00:13:43.281Z,95.70
2019-05-17T00:14:43.311Z,95.84
2019-05-17T00:15:43.344Z,96.12
2019-05-17T00:16:43.373Z,95.94
2019-05-17T00:17:43.407Z,96.60
2019-05-17T00:18:43.437Z,95.94
2019-05-17T00:19:43.465Z,96.03
2019-05-17T00:20:43.499Z,96.12
2019-05-17T00:21:43.528Z,95.94
2019-05-17T00:22:43.557Z,96.32
2019-05-17T00:23:43.592Z,96.03
2019-05-17T00:24:43.620Z,96.60
2019-05-17T00:25:43.653Z,96.51
2019-05-17T00:26:43.680Z,96.32
2019-05-17T00:27:43.711Z,96.32
2019-05-17T00:28:43.742Z,96.22
2019-05-17T00:29:43.770Z,96.80
2019-05-17T00:30:43.802Z,96.51
2019-05-17T00:31:46.114Z,96.32
2019-05-17T00:32:43.864Z,96.60
2019-05-17T00:33:43.893Z,96.80
2019-05-17T00:34:43.924Z,96.60
2019-05-17T00:35:43.955Z,96.22
2019-05-17T00:36:43.987Z,96.32
2019-05-17T00:37:46.391Z,96.51
2019-05-17T00:38:49.056Z,96.70
2019-05-17T00:39:44.077Z,96.32
2019-05-17T00:40:44.108Z,96.32
2019-05-17T00:41:44.141Z,96.98
2019-05-17T00:42:46.431Z,96.80
2019-05-17T00:43:46.142Z,96.80
2019-05-17T00:44:44.232Z,96.89
2019-05-17T00:45:46.676Z,96.80
2019-05-17T00:46:46.588Z,96.70
2019-05-17T00:47:46.588Z,96.80
2019-05-17T00:48:46.490Z,96.60
2019-05-17T00:49:46.359Z,97.08
2019-05-17T00:50:44.425Z,96.32
2019-05-17T00:51:44.444Z,96.70
2019-05-17T00:52:44.475Z,96.70
2019-05-17T00:53:46.700Z,96.80
2019-05-17T00:54:46.843Z,96.70
2019-05-17T00:55:46.561Z,96.98
2019-05-17T00:56:46.377Z,96.22
2019-05-17T00:57:44.626Z,96.80
2019-05-17T00:58:44.657Z,96.32
2019-05-17T00:59:44.689Z,96.98
2019-05-17T01:00:47.683Z,96.22
2019-05-17T01:01:46.770Z,96.51
2019-05-17T01:02:46.797Z,96.51
2019-05-17T01:03:44.812Z,96.41
2019-05-17T01:04:47.386Z,96.32
2019-05-17T01:05:47.170Z,96.41
2019-05-17T01:06:46.916Z,96.03
2019-05-17T01:07:47.010Z,96.22
2019-05-17T01:08:47.464Z,96.41
2019-05-17T01:09:47.117Z,96.32
2019-05-17T01:10:47.218Z,96.60
2019-05-17T01:11:47.186Z,96.32
2019-05-17T01:12:45.090Z,96.60
2019-05-17T01:13:46.710Z,96.60
2019-05-17T01:14:46.656Z,96.32
2019-05-17T01:15:47.232Z,96.32
2019-05-17T01:16:47.337Z,96.51
2019-05-17T01:17:47.241Z,96.51
2019-05-17T01:18:47.036Z,96.51
2019-05-17T01:19:47.175Z,96.51
2019-05-17T01:20:47.281Z,96.22
2019-05-17T01:21:47.395Z,95.94
2019-05-17T01:22:47.395Z,96.60
2019-05-17T01:23:46.782Z,96.32
2019-05-17T01:24:46.267Z,96.32
2019-05-17T01:25:45.478Z,96.12
2019-05-17T01:26:46.897Z,96.41
2019-05-17T01:27:47.484Z,96.22
2019-05-17T01:28:46.655Z,96.32
2019-05-17T01:29:46.598Z,96.12
2019-05-17T01:30:46.379Z,96.89
2019-05-17T01:31:46.522Z,97.13
2019-05-17T01:32:46.442Z,97.46
2019-05-17T01:33:47.075Z,97.46
2019-05-17T01:34:46.942Z,98.13
2019-05-17T01:35:46.631Z,98.13
2019-05-17T01:36:46.433Z,98.51
2019-05-17T01:37:47.461Z,98.79
2019-05-17T01:38:46.910Z,98.51
2019-05-17T01:39:46.822Z,98.89
2019-05-17T01:40:46.376Z,98.89
2019-05-17T01:41:46.821Z,98.99
2019-05-17T01:42:46.642Z,98.99
2019-05-17T01:43:47.419Z,99.18
2019-05-17T01:44:47.187Z,99.18
2019-05-17T01:45:48.012Z,98.51
2019-05-17T01:46:46.586Z,98.99
2019-05-17T01:47:47.520Z,98.99
2019-05-17T01:48:47.110Z,98.89
2019-05-17T01:49:47.007Z,98.89
2019-05-17T01:50:46.530Z,99.18
2019-05-17T01:51:46.622Z,99.27
2019-05-17T01:52:46.420Z,99.37
2019-05-17T01:53:46.992Z,98.70
2019-05-17T01:54:46.999Z,98.89
2019-05-17T01:55:46.658Z,98.89
2019-05-17T01:56:46.417Z,99.08
2019-05-17T01:57:47.589Z,98.79
2019-05-17T01:58:47.055Z,98.89
2019-05-17T01:59:46.796Z,98.79
2019-05-17T02:00:46.687Z,98.32
2019-05-17T02:01:47.346Z,98.60
2019-05-17T02:02:47.089Z,98.41
2019-05-17T02:03:47.050Z,98.70
2019-05-17T02:04:46.823Z,99.08
2019-05-17T02:05:47.371Z,98.22
2019-05-17T02:06:46.880Z,98.89
2019-05-17T02:07:46.853Z,98.70
2019-05-17T02:08:47.498Z,98.79
2019-05-17T02:09:47.646Z,98.99
2019-05-17T02:10:46.840Z,99.37
2019-05-17T02:11:46.869Z,99.75
2019-05-17T02:12:49.131Z,99.27
2019-05-17T02:13:46.928Z,99.65
2019-05-17T02:14:46.961Z,99.27
2019-05-17T02:15:47.153Z,99.55
2019-05-17T02:16:47.023Z,99.27
2019-05-17T02:17:47.103Z,99.08
2019-05-17T02:18:47.079Z,99.18
2019-05-17T02:19:47.111Z,98.60
2019-05-17T02:20:47.144Z,98.70
2019-05-17T02:21:47.938Z,98.79
2019-05-17T02:22:47.597Z,98.79
2019-05-17T02:23:47.231Z,98.70
2019-05-17T02:24:47.262Z,98.70
2019-05-17T02:25:47.320Z,98.79
2019-05-17T02:26:47.322Z,98.41
2019-05-17T02:27:47.353Z,98.03
2019-05-17T02:28:47.383Z,98.22
2019-05-17T02:29:47.412Z,98.13
2019-05-17T02:30:47.446Z,97.65
2019-05-17T02:31:47.473Z,97.65
2019-05-17T02:32:47.503Z,97.84
2019-05-17T02:33:47.534Z,97.46
2019-05-17T02:34:47.579Z,97.75
2019-05-17T02:35:47.595Z,97.56
2019-05-17T02:36:47.625Z,97.56
2019-05-17T02:37:47.654Z,97.46
2019-05-17T02:38:47.686Z,97.46
2019-05-17T02:39:58.166Z,97.56
2019-05-17T02:40:47.749Z,97.56
2019-05-17T02:41:47.777Z,96.89
2019-05-17T02:42:47.807Z,96.70
2019-05-17T02:43:47.835Z,96.80
2019-05-17T02:44:47.868Z,96.89
2019-05-17T02:45:47.898Z,97.46
2019-05-17T02:46:47.929Z,97.56
2019-05-17T02:47:47.958Z,97.08
2019-05-17T02:48:47.988Z,96.98
2019-05-17T02:49:48.030Z,97.08
2019-05-17T02:50:48.397Z,97.08
2019-05-17T02:51:48.080Z,96.98
2019-05-17T02:52:48.110Z,96.80
2019-05-17T02:53:48.139Z,96.70
2019-05-17T02:54:48.171Z,96.60
2019-05-17T02:55:48.209Z,96.22
2019-05-17T02:56:48.237Z,95.94
2019-05-17T02:57:48.260Z,96.22
2019-05-17T02:58:48.293Z,96.12
2019-05-17T02:59:48.323Z,96.70
2019-05-17T03:00:48.354Z,96.22
2019-05-17T03:01:48.383Z,96.22
2019-05-17T03:02:48.414Z,96.03
2019-05-17T03:03:48.443Z,95.94
2019-05-17T03:04:48.474Z,96.41
2019-05-17T03:05:48.528Z,96.03
2019-05-17T03:06:48.536Z,95.84
2019-05-17T03:07:48.565Z,96.22
2019-05-17T03:08:48.597Z,96.41
2019-05-17T03:09:48.642Z,96.03
2019-05-17T03:10:48.660Z,96.41
2019-05-17T03:11:48.692Z,96.41
2019-05-17T03:12:48.734Z,96.03
2019-05-17T03:13:48.750Z,95.94
2019-05-17T03:14:48.777Z,96.32
2019-05-17T03:15:48.815Z,96.41
2019-05-17T03:16:48.843Z,95.84
2019-05-17T03:17:48.870Z,96.12
2019-05-17T03:18:48.907Z,96.41
2019-05-17T03:19:48.930Z,96.03
2019-05-17T03:20:52.264Z,96.41
2019-05-17T03:21:48.990Z,96.22
2019-05-17T03:22:52.324Z,95.84
2019-05-17T03:23:49.051Z,96.12
2019-05-17T03:24:49.081Z,95.84
2019-05-17T03:25:52.187Z,95.75
2019-05-17T03:26:52.384Z,95.94
2019-05-17T03:27:49.173Z,96.12
2019-05-17T03:28:49.202Z,95.36
2019-05-17T03:29:49.231Z,95.36
2019-05-17T03:30:55.463Z,96.03
2019-05-17T03:31:58.096Z,95.65
2019-05-17T03:32:55.482Z,95.56
2019-05-17T03:33:55.156Z,95.94
2019-05-17T03:34:55.302Z,95.75
2019-05-17T03:35:49.415Z,95.65
2019-05-17T03:36:49.447Z,95.94
2019-05-17T03:37:52.899Z,96.03
2019-05-17T03:38:49.514Z,95.94
2019-05-17T03:39:49.536Z,96.12
2019-05-17T03:41:09.506Z,95.27
2019-05-17T03:41:49.596Z,95.36
2019-05-17T03:42:49.626Z,95.36
2019-05-17T03:43:53.031Z,95.36
2019-05-17T03:44:52.908Z,95.36
2019-05-17T03:45:53.139Z,95.36
2019-05-17T03:46:52.949Z,95.27
2019-05-17T03:47:52.966Z,95.36
2019-05-17T03:48:52.896Z,95.08
2019-05-17T03:49:52.874Z,95.75
2019-05-17T03:50:52.874Z,95.08
2019-05-17T03:51:52.958Z,95.46
2019-05-17T03:52:53.270Z,95.65
2019-05-17T03:53:52.910Z,95.36
2019-05-17T03:54:52.976Z,94.79
2019-05-17T03:55:53.746Z,95.08
2019-05-17T03:56:53.016Z,94.89
2019-05-17T03:57:53.119Z,95.56
2019-05-17T03:58:52.962Z,95.36
2019-05-17T03:59:52.504Z,95.17
2019-05-17T04:00:53.100Z,95.17
2019-05-17T04:01:52.747Z,94.60
2019-05-17T04:02:53.401Z,94.89
2019-05-17T04:03:52.713Z,94.70
2019-05-17T04:04:52.938Z,94.70
2019-05-17T04:05:52.855Z,94.79
2019-05-17T04:06:52.592Z,94.89
2019-05-17T04:07:53.347Z,94.70
2019-05-17T04:08:52.772Z,94.79
2019-05-17T04:09:53.324Z,94.79
2019-05-17T04:10:53.042Z,95.27
2019-05-17T04:11:53.260Z,95.27
2019-05-17T04:12:53.107Z,94.79
2019-05-17T04:13:53.561Z,95.27
2019-05-17T04:14:53.289Z,95.36
2019-05-17T04:15:52.974Z,95.65
2019-05-17T04:16:53.548Z,95.27
2019-05-17T04:17:52.855Z,95.75
2019-05-17T04:18:53.330Z,96.12
2019-05-17T04:19:53.300Z,95.84
2019-05-17T04:20:52.804Z,95.36
2019-05-17T04:21:53.550Z,95.94
2019-05-17T04:22:52.681Z,96.22
2019-05-17T04:23:53.788Z,95.94
2019-05-17T04:24:52.471Z,96.22
2019-05-17T04:25:53.105Z,95.94
2019-05-17T04:26:52.320Z,95.94
2019-05-17T04:27:53.633Z,95.56
2019-05-17T04:28:53.263Z,96.03
2019-05-17T04:29:53.280Z,96.03
2019-05-17T04:30:52.761Z,96.22
2019-05-17T04:31:57.732Z,96.03
2019-05-17T04:33:43.409Z,96.12
2019-05-17T04:34:43.888Z,96.12
2019-05-17T04:36:45.587Z,95.98
2019-05-17T04:37:45.592Z,95.79
2019-05-17T04:39:47.742Z,95.32
2019-05-17T04:40:47.765Z,95.41
2019-05-17T04:42:39.797Z,95.41
2019-05-17T04:43:42.361Z,95.32
2019-05-17T04:45:42.726Z,95.12
2019-05-17T04:46:43.078Z,95.32
2019-05-17T04:48:44.437Z,95.12
2019-05-17T04:49:44.444Z,94.84
2019-05-17T04:51:46.590Z,94.93
2019-05-17T04:52:46.611Z,95.03
2019-05-17T04:54:38.542Z,95.12
2019-05-17T04:55:38.571Z,94.84
2019-05-17T04:57:32.501Z,94.74
2019-05-17T04:58:33.476Z,94.84
2019-05-17T05:00:34.161Z,94.84
2019-05-17T05:01:33.244Z,94.84
2019-05-17T05:03:25.276Z,94.27
2019-05-17T05:04:25.278Z,94.37
2019-05-17T05:06:17.239Z,93.79
2019-05-17T05:07:17.240Z,94.17
2019-05-17T05:09:12.481Z,94.17
2019-05-17T05:10:13.085Z,94.37
2019-05-17T05:12:05.886Z,94.17
2019-05-17T05:13:03.042Z,94.22
2019-05-17T05:15:03.889Z,94.41
2019-05-17T05:16:03.854Z,94.17
2019-05-17T05:17:03.892Z,94.37
2019-05-17T05:18:03.928Z,94.70
2019-05-17T05:19:03.954Z,94.51
2019-05-17T05:20:03.980Z,94.60
2019-05-17T05:21:04.113Z,94.89
2019-05-17T05:22:04.717Z,94.12
2019-05-17T05:23:04.077Z,94.60
2019-05-17T05:24:04.110Z,94.12
2019-05-17T05:25:04.138Z,93.84
2019-05-17T05:26:04.171Z,93.93
2019-05-17T05:27:04.204Z,94.12
2019-05-17T05:28:04.227Z,93.65
2019-05-17T05:29:04.261Z,93.55
2019-05-17T05:30:04.291Z,93.84
2019-05-17T05:31:04.327Z,93.36
2019-05-17T05:32:04.352Z,92.79
2019-05-17T05:33:04.386Z,92.79
2019-05-17T05:34:04.408Z,92.88
2019-05-17T05:35:04.430Z,92.79
2019-05-17T05:36:04.486Z,93.17
2019-05-17T05:37:04.504Z,93.08
2019-05-17T05:38:04.547Z,92.88
2019-05-17T05:39:04.565Z,93.27
2019-05-17T05:40:04.600Z,93.36
2019-05-17T05:41:04.627Z,93.08
2019-05-17T05:42:10.225Z,92.93
2019-05-17T05:43:04.684Z,93.22
2019-05-17T05:44:04.720Z,93.31
2019-05-17T05:45:04.751Z,92.36
2019-05-17T05:46:04.781Z,92.74
2019-05-17T05:47:04.814Z,92.93
2019-05-17T05:48:04.860Z,92.26
2019-05-17T05:49:04.874Z,92.26
2019-05-17T05:50:04.919Z,92.26
2019-05-17T05:51:05.603Z,92.26
2019-05-17T05:52:04.963Z,92.17
2019-05-17T05:53:05.015Z,92.17
2019-05-17T05:54:05.044Z,92.07
2019-05-17T05:55:05.064Z,91.88
2019-05-17T05:56:05.106Z,92.46
2019-05-17T05:57:05.133Z,93.51
2019-05-17T05:58:05.154Z,92.93
2019-05-17T05:59:05.188Z,92.65
2019-05-17T06:00:05.209Z,92.36
2019-05-17T06:01:05.245Z,92.46
2019-05-17T06:02:05.276Z,92.36
2019-05-17T06:03:05.318Z,92.83
2019-05-17T06:04:05.336Z,93.51
2019-05-17T06:05:05.372Z,93.60
2019-05-17T06:06:05.401Z,93.51
2019-05-17T06:07:05.430Z,92.93
2019-05-17T06:08:05.466Z,92.36
2019-05-17T06:09:05.495Z,92.69
2019-05-17T06:10:05.525Z,93.17
2019-05-17T06:11:05.557Z,93.22
2019-05-17T06:12:05.598Z,92.41
2019-05-17T06:13:05.621Z,91.83
2019-05-17T06:14:05.662Z,91.36
2019-05-17T06:15:05.671Z,91.36
2019-05-17T06:16:05.714Z,91.45
2019-05-17T06:17:05.764Z,90.88
2019-05-17T06:18:05.782Z,91.16
2019-05-17T06:19:05.805Z,91.55
2019-05-17T06:20:05.849Z,91.36
2019-05-17T06:21:05.888Z,91.55
2019-05-17T06:22:05.903Z,91.83
2019-05-17T06:23:05.941Z,91.74
2019-05-17T06:24:05.958Z,91.16
2019-05-17T06:25:05.992Z,91.36
2019-05-17T06:26:06.062Z,91.16
2019-05-17T06:27:06.059Z,90.97
2019-05-17T06:28:06.090Z,90.59
2019-05-17T06:29:06.121Z,90.50
2019-05-17T06:30:06.162Z,90.59
2019-05-17T06:31:06.184Z,90.88
2019-05-17T06:32:06.214Z,90.97
2019-05-17T06:33:06.248Z,91.55
2019-05-17T06:34:06.282Z,90.69
2019-05-17T06:35:06.303Z,91.07
2019-05-17T06:36:06.335Z,90.59
2019-05-17T06:37:06.363Z,90.59
2019-05-17T06:38:06.407Z,90.21
2019-05-17T06:39:06.439Z,89.39
2019-05-17T06:40:06.470Z,89.78
2019-05-17T06:41:06.498Z,89.49
2019-05-17T06:42:06.529Z,89.59
2019-05-17T06:43:06.567Z,89.30
2019-05-17T06:44:06.594Z,89.11
2019-05-17T06:45:06.622Z,89.20
2019-05-17T06:46:06.643Z,89.30
2019-05-17T06:47:06.690Z,88.63
2019-05-17T06:48:06.713Z,89.01
2019-05-17T06:49:06.758Z,89.59
2019-05-17T06:50:06.788Z,89.20
2019-05-17T06:51:06.817Z,90.06
2019-05-17T06:52:06.846Z,89.49
2019-05-17T06:53:06.878Z,89.59
2019-05-17T06:54:06.901Z,89.11
2019-05-17T06:55:06.951Z,88.58
2019-05-17T06:56:06.970Z,87.82
2019-05-17T06:57:07.001Z,87.91
2019-05-17T06:58:07.276Z,87.72
2019-05-17T06:59:07.066Z,87.43
2019-05-17T07:00:12.212Z,87.34
2019-05-17T07:01:09.421Z,87.34
2019-05-17T07:02:07.170Z,87.24
2019-05-17T07:03:09.395Z,87.24
2019-05-17T07:04:07.226Z,87.34
2019-05-17T07:05:07.257Z,87.43
2019-05-17T07:06:07.292Z,86.86
2019-05-17T07:07:07.326Z,85.94
2019-05-17T07:08:07.341Z,86.14
2019-05-17T07:09:07.389Z,86.80
2019-05-17T07:10:07.418Z,86.33
2019-05-17T07:11:09.711Z,86.23
2019-05-17T07:12:07.483Z,86.61
2019-05-17T07:13:07.517Z,86.23
2019-05-17T07:14:09.431Z,85.75
2019-05-17T07:15:07.574Z,85.57
2019-05-17T07:16:07.611Z,85.94
2019-05-17T07:17:09.762Z,85.61
2019-05-17T07:18:10.037Z,84.80
2019-05-17T07:19:10.265Z,84.84
2019-05-17T07:20:10.234Z,84.94
2019-05-17T07:21:10.064Z,84.84
2019-05-17T07:22:09.465Z,85.22
2019-05-17T07:23:10.461Z,84.65
2019-05-17T07:24:09.921Z,83.60
2019-05-17T07:25:10.483Z,83.03
2019-05-17T07:26:09.799Z,81.92
2019-05-17T07:27:09.991Z,82.17
2019-05-17T07:28:10.141Z,82.30
2019-05-17T07:29:10.106Z,83.06
2019-05-17T07:30:09.949Z,82.59
2019-05-17T07:31:10.157Z,82.30
2019-05-17T07:32:09.820Z,81.73
2019-05-17T07:33:10.156Z,81.73
2019-05-17T07:34:09.249Z,80.38
2019-05-17T07:35:10.428Z,80.87
2019-05-17T07:36:10.166Z,81.15
2019-05-17T07:37:10.575Z,80.48
2019-05-17T07:38:10.544Z,80.29
2019-05-17T07:39:10.862Z,79.81
2019-05-17T07:40:10.659Z,80.14
2019-05-17T07:41:10.150Z,80.29
2019-05-17T07:42:09.647Z,79.95
2019-05-17T07:43:14.354Z,80.24
2019-05-17T07:44:09.936Z,80.33
2019-05-17T07:45:10.114Z,79.85
2019-05-17T07:46:09.613Z,79.57
2019-05-17T07:47:09.753Z,79.28
2019-05-17T07:48:09.770Z,78.32
2019-05-17T07:49:10.855Z,78.03
2019-05-17T07:50:11.239Z,77.94
2019-05-17T07:51:10.105Z,77.36
2019-05-17T07:52:10.343Z,77.08
2019-05-17T07:53:10.275Z,76.44
2019-05-17T07:54:10.480Z,77.50
2019-05-17T07:55:10.929Z,76.89
2019-05-17T07:56:10.300Z,77.21
2019-05-17T07:57:10.380Z,77.69
2019-05-17T07:58:09.986Z,77.21
2019-05-17T07:59:09.564Z,77.11
2019-05-17T08:00:10.338Z,77.11
2019-05-17T08:01:10.067Z,76.54
2019-05-17T08:02:10.665Z,76.92
2019-05-17T08:03:13.038Z,76.64
2019-05-17T08:04:10.011Z,75.52
2019-05-17T08:05:10.008Z,75.81
2019-05-17T08:06:10.525Z,75.04
2019-05-17T08:07:10.683Z,74.95
2019-05-17T08:08:09.763Z,74.08
2019-05-17T08:09:13.749Z,74.66
2019-05-17T08:10:11.032Z,75.14
2019-05-17T08:11:10.559Z,73.70
2019-05-17T08:12:11.045Z,73.99
2019-05-17T08:13:25.236Z,73.45
2019-05-17T08:14:10.555Z,72.78
2019-05-17T08:15:10.822Z,71.63
2019-05-17T08:16:10.349Z,72.20
2019-05-17T08:17:10.228Z,71.44
2019-05-17T08:18:10.741Z,70.76
2019-05-17T08:19:09.873Z,70.00
2019-05-17T08:20:10.234Z,69.81
2019-05-17T08:21:10.343Z,70.09
2019-05-17T08:22:09.910Z,69.81
2019-05-17T08:23:10.522Z,69.84
2019-05-17T08:24:10.511Z,70.13
2019-05-17T08:25:10.334Z,70.90
2019-05-17T08:26:10.665Z,71.19
2019-05-17T08:27:10.393Z,70.51
2019-05-17T08:28:10.900Z,71.47
2019-05-17T08:29:10.104Z,71.28
2019-05-17T08:30:10.650Z,71.09
2019-05-17T08:31:10.100Z,71.09
2019-05-17T08:32:10.122Z,71.22
2019-05-17T08:33:11.010Z,70.64
2019-05-17T08:34:10.467Z,70.74
2019-05-17T08:35:11.273Z,69.49
2019-05-17T08:36:10.270Z,69.40
2019-05-17T08:37:10.299Z,69.78
2019-05-17T08:38:10.715Z,68.53
2019-05-17T08:39:10.455Z,68.66
2019-05-17T08:40:10.933Z,68.76
2019-05-17T08:41:10.673Z,67.61
2019-05-17T08:42:10.479Z,67.32
2019-05-17T08:43:10.511Z,65.97
2019-05-17T08:44:10.530Z,66.46
2019-05-17T08:45:10.561Z,66.46
2019-05-17T08:46:10.720Z,66.26
2019-05-17T08:47:10.637Z,67.64
2019-05-17T08:48:10.666Z,66.97
2019-05-17T08:49:10.717Z,67.16
2019-05-17T08:50:11.602Z,67.25
2019-05-17T08:51:10.943Z,67.16
2019-05-17T08:52:10.815Z,67.16
2019-05-17T08:53:10.918Z,66.20
2019-05-17T08:54:10.895Z,66.23
2019-05-17T08:55:10.930Z,65.66
2019-05-17T08:56:10.946Z,65.56
2019-05-17T08:57:10.994Z,65.66
2019-05-17T08:58:11.031Z,64.79
2019-05-17T08:59:11.063Z,64.98
2019-05-17T09:00:11.098Z,64.79
2019-05-17T09:01:11.404Z,64.40
2019-05-17T09:02:11.169Z,64.53
2019-05-17T09:03:11.192Z,63.67
2019-05-17T09:04:11.240Z,63.38
2019-05-17T09:05:11.267Z,63.38
2019-05-17T09:06:12.546Z,63.95
2019-05-17T09:07:11.347Z,63.48
2019-05-17T09:08:11.379Z,63.22
2019-05-17T09:09:11.421Z,63.31
2019-05-17T09:10:11.437Z,61.77
2019-05-17T09:11:11.477Z,60.62
2019-05-17T09:12:11.514Z,60.52
2019-05-17T09:13:14.701Z,61.49
2019-05-17T09:14:11.583Z,60.81
2019-05-17T09:15:11.627Z,60.14
2019-05-17T09:16:11.670Z,58.98
2019-05-17T09:17:11.701Z,58.53
2019-05-17T09:18:11.737Z,59.01
2019-05-17T09:19:11.774Z,59.49
2019-05-17T09:20:11.806Z,59.59
2019-05-17T09:21:11.841Z,59.23
2019-05-17T09:22:11.884Z,58.56
2019-05-17T09:23:11.919Z,59.23
2019-05-17T09:24:11.940Z,58.75
2019-05-17T09:25:18.454Z,57.79
2019-05-17T09:26:12.021Z,58.30
2019-05-17T09:27:12.059Z,58.40
2019-05-17T09:28:12.096Z,59.27
2019-05-17T09:29:12.129Z,58.59
2019-05-17T09:30:12.172Z,56.27
2019-05-17T09:31:12.194Z,54.93
2019-05-17T09:32:12.227Z,55.05
2019-05-17T09:33:12.265Z,54.83
2019-05-17T09:34:12.314Z,55.02
2019-05-17T09:35:12.356Z,54.93
2019-05-17T09:36:12.386Z,54.25
2019-05-17T09:37:14.875Z,54.35
2019-05-17T09:38:12.448Z,54.35
2019-05-17T09:39:12.495Z,54.16
2019-05-17T09:40:12.510Z,53.19
2019-05-17T09:41:12.559Z,53.09
2019-05-17T09:42:12.583Z,53.77
2019-05-17T09:43:14.904Z,53.96
2019-05-17T09:44:16.104Z,54.54
2019-05-17T09:45:12.710Z,54.86
2019-05-17T09:46:12.747Z,54.96
2019-05-17T09:47:12.780Z,54.38
2019-05-17T09:48:12.818Z,53.13
2019-05-17T09:49:12.852Z,52.83
2019-05-17T09:50:12.879Z,53.80
2019-05-17T09:51:12.929Z,53.15
2019-05-17T09:52:12.958Z,53.15
2019-05-17T09:53:12.997Z,53.05
2019-05-17T09:54:13.032Z,52.57
2019-05-17T09:55:13.072Z,52.37
2019-05-17T09:56:13.111Z,52.28
2019-05-17T09:57:13.143Z,52.45
2019-05-17T09:58:13.180Z,51.58
2019-05-17T09:59:13.222Z,52.16
2019-05-17T10:00:13.256Z,53.41
2019-05-17T10:01:13.294Z,53.89
2019-05-17T10:02:13.335Z,53.13
2019-05-17T10:03:13.377Z,53.03
2019-05-17T10:04:13.929Z,53.13
2019-05-17T10:05:13.446Z,53.31
2019-05-17T10:06:13.483Z,53.89
2019-05-17T10:07:13.537Z,53.99
2019-05-17T10:08:13.557Z,54.09
2019-05-17T10:09:13.584Z,54.28
2019-05-17T10:10:13.625Z,54.40
2019-05-17T10:11:13.662Z,53.44
2019-05-17T10:12:13.685Z,52.47
2019-05-17T10:13:13.751Z,53.25
2019-05-17T10:14:24.676Z,52.86
2019-05-17T10:15:13.808Z,51.12
2019-05-17T10:16:13.842Z,50.28
2019-05-17T10:17:13.881Z,49.80
2019-05-17T10:18:13.921Z,48.71
2019-05-17T10:19:13.960Z,49.39
2019-05-17T10:20:14.017Z,49.19
2019-05-17T10:21:14.028Z,49.58
2019-05-17T10:22:14.064Z,49.58
2019-05-17T10:23:14.101Z,49.87
2019-05-17T10:24:14.141Z,48.90
2019-05-17T10:25:14.173Z,50.04
2019-05-17T10:26:14.204Z,50.90
2019-05-17T10:27:14.775Z,50.62
2019-05-17T10:28:14.281Z,50.90
2019-05-17T10:29:14.328Z,50.04
2019-05-17T10:30:14.375Z,50.04
2019-05-17T10:31:14.402Z,51.20
2019-05-17T10:32:14.416Z,51.10
2019-05-17T10:33:14.457Z,50.23
2019-05-17T10:34:14.512Z,51.10
2019-05-17T10:35:14.612Z,51.32
2019-05-17T10:36:14.578Z,52.37
2019-05-17T10:37:14.676Z,52.31
2019-05-17T10:38:14.655Z,52.21
2019-05-17T10:39:14.698Z,51.53
2019-05-17T10:40:14.729Z,50.01
2019-05-17T10:41:14.774Z,49.82
2019-05-17T10:42:14.804Z,51.10
2019-05-17T10:43:14.841Z,49.37
2019-05-17T10:44:14.878Z,49.19
2019-05-17T10:45:14.921Z,49.68
2019-05-17T10:46:14.958Z,47.65
2019-05-17T10:47:15.000Z,46.68
2019-05-17T10:48:15.032Z,46.10
2019-05-17T10:49:15.069Z,46.49
2019-05-17T10:50:15.096Z,46.58
2019-05-17T10:51:15.143Z,46.88
2019-05-17T10:52:15.184Z,46.88
2019-05-17T10:53:15.210Z,46.68
2019-05-17T10:54:15.249Z,45.72
2019-05-17T10:55:15.306Z,46.66
2019-05-17T10:56:15.319Z,46.95
2019-05-17T10:57:15.367Z,47.05
2019-05-17T10:58:15.388Z,47.63
2019-05-17T10:59:15.439Z,47.05
2019-05-17T11:00:15.473Z,47.24
2019-05-17T11:01:15.512Z,47.50
2019-05-17T11:02:15.548Z,47.50
2019-05-17T11:03:15.576Z,48.08
2019-05-17T11:04:15.632Z,48.47
2019-05-17T11:05:15.665Z,49.53
2019-05-17T11:06:15.702Z,49.82
2019-05-17T11:07:15.736Z,49.80
2019-05-17T11:08:15.783Z,50.38
2019-05-17T11:09:15.821Z,50.38
2019-05-17T11:10:15.848Z,50.67
2019-05-17T11:11:15.878Z,50.28
2019-05-17T11:12:15.918Z,50.86
2019-05-17T11:13:15.973Z,50.76
2019-05-17T11:14:15.999Z,52.11
2019-05-17T11:15:16.035Z,51.70
2019-05-17T11:16:16.077Z,51.03
2019-05-17T11:17:16.112Z,51.22
2019-05-17T11:18:16.148Z,52.09
2019-05-17T11:19:16.202Z,52.57
2019-05-17T11:20:16.224Z,52.57
2019-05-17T11:21:16.265Z,52.28
2019-05-17T11:22:16.394Z,52.45
2019-05-17T11:23:16.337Z,51.87
2019-05-17T11:24:16.377Z,52.45
2019-05-17T11:25:16.409Z,52.64
2019-05-17T11:26:16.451Z,53.31
2019-05-17T11:27:16.486Z,52.83
2019-05-17T11:28:16.574Z,52.93
2019-05-17T11:29:16.565Z,52.83
2019-05-17T11:30:16.598Z,53.22
2019-05-17T11:31:16.639Z,53.13
2019-05-17T11:32:16.660Z,53.41
2019-05-17T11:33:16.701Z,53.13
2019-05-17T11:34:16.748Z,53.80
2019-05-17T11:35:16.782Z,53.80
2019-05-17T11:36:16.820Z,53.41
2019-05-17T11:37:16.857Z,53.89
2019-05-17T11:38:16.897Z,53.70
2019-05-17T11:39:16.973Z,53.89
2019-05-17T11:40:16.969Z,53.41
2019-05-17T11:41:21.805Z,53.51
2019-05-17T11:42:17.040Z,53.03
2019-05-17T11:43:17.071Z,53.89
2019-05-17T11:44:17.119Z,53.70
2019-05-17T11:45:27.253Z,53.13
2019-05-17T11:46:17.193Z,52.57
2019-05-17T11:47:17.226Z,52.86
2019-05-17T11:48:17.276Z,52.86
2019-05-17T11:49:17.303Z,52.76
2019-05-17T11:50:17.332Z,52.28
2019-05-17T11:51:17.380Z,52.47
2019-05-17T11:52:17.424Z,51.03
2019-05-17T11:53:17.444Z,51.80
2019-05-17T11:54:17.492Z,51.70
2019-05-17T11:55:17.523Z,52.19
2019-05-17T11:56:17.561Z,52.47
2019-05-17T11:57:17.598Z,51.41
2019-05-17T11:58:17.620Z,51.12
2019-05-17T11:59:17.668Z,51.32
2019-05-17T12:00:17.710Z,51.32
2019-05-17T12:01:17.749Z,51.32
2019-05-17T12:02:17.784Z,51.99
2019-05-17T12:03:17.809Z,52.57
2019-05-17T12:04:17.862Z,52.37
2019-05-17T12:05:17.878Z,52.57
2019-05-17T12:06:17.932Z,52.50
2019-05-17T12:07:17.972Z,51.63
2019-05-17T12:08:17.993Z,50.18
2019-05-17T12:09:18.031Z,50.38
2019-05-17T12:10:18.082Z,49.60
2019-05-17T12:11:18.116Z,49.24
2019-05-17T12:12:18.136Z,49.53
2019-05-17T12:13:18.195Z,49.34
2019-05-17T12:14:18.229Z,49.34
2019-05-17T12:15:18.275Z,49.07
2019-05-17T12:16:18.302Z,48.57
2019-05-17T12:17:18.345Z,48.47
2019-05-17T12:18:18.387Z,48.59
2019-05-17T12:19:18.416Z,48.59
2019-05-17T12:20:18.463Z,49.46
2019-05-17T12:21:18.491Z,49.37
2019-05-17T12:22:18.526Z,48.79
2019-05-17T12:23:18.570Z,48.32
2019-05-17T12:24:18.603Z,48.42
2019-05-17T12:25:18.642Z,48.61
2019-05-17T12:26:18.683Z,48.90
2019-05-17T12:27:18.727Z,48.42
2019-05-17T12:28:18.755Z,48.23
2019-05-17T12:29:18.788Z,48.71
2019-05-17T12:30:18.823Z,48.64
2019-05-17T12:31:18.858Z,48.93
2019-05-17T12:32:18.915Z,46.70
2019-05-17T12:33:18.938Z,46.51
2019-05-17T12:34:18.983Z,45.35
2019-05-17T12:35:19.006Z,45.37
2019-05-17T12:36:19.075Z,45.28
2019-05-17T12:37:19.094Z,45.95
2019-05-17T12:38:19.122Z,45.76
2019-05-17T12:39:19.173Z,45.76
2019-05-17T12:40:19.205Z,45.59
2019-05-17T12:41:19.242Z,45.30
2019-05-17T12:42:19.279Z,45.78
2019-05-17T12:43:19.316Z,45.68
2019-05-17T12:44:19.354Z,45.30
2019-05-17T12:45:19.379Z,44.23
2019-05-17T12:46:19.432Z,43.07
2019-05-17T12:47:19.468Z,41.72
2019-05-17T12:48:19.502Z,41.33
2019-05-17T12:49:19.540Z,41.99
2019-05-17T12:50:19.589Z,42.57
2019-05-17T12:51:19.617Z,42.96
2019-05-17T12:52:19.668Z,42.76
2019-05-17T12:53:19.705Z,42.86
2019-05-17T12:54:19.737Z,42.86
2019-05-17T12:55:19.774Z,42.96
2019-05-17T12:56:19.809Z,43.13
2019-05-17T12:57:19.852Z,44.09
2019-05-17T12:58:19.891Z,44.77
2019-05-17T12:59:19.927Z,45.35
2019-05-17T13:00:19.967Z,45.04
2019-05-17T13:01:20.004Z,44.67
2019-05-17T13:02:20.045Z,44.07
2019-05-17T13:03:20.073Z,44.07
2019-05-17T13:04:20.118Z,44.53
2019-05-17T13:05:20.159Z,45.11
2019-05-17T13:06:20.191Z,45.69
2019-05-17T13:07:20.225Z,46.27